Odder, Denmark
Current Conditions -  °F | °C
As of 4:50 AM on Saturday 25 Oct 2014 (Local Time) from EKAH Reporting Station
Rain Showers Rain Showers  
Wind Chill: 52°   Ceiling: 600
Heat Index: 52°   Visibility: 4mi
Dew Point: 48°   Wind: 9mph
Humidity: 88%   Direction: 200°SSW
Pressure: 29.91"   Gusts: 22mph
Location:  55.97°N, 10.15°E
Report Text: EKAH 250250Z AUTO 20008G19KT 140V250 6000NDV -SHRA BKN006///11/09 Q1013
Loading
Personal Weather Stations






























Interactive Weather Map
Tropical Storm Tracking
New forecast layout! Learn more

10-Day Weather Forecast

Advertisements
Track Severe Weather on mobile